AirNav   Pilot Hours Calculator
 
 1089 users online  

0MN3 Lower Hay Lake Seaplane Base
Jenkins, Minnesota, USA

GOING TO JENKINS?


FAA INFORMATION EFFECTIVE 22 APRIL 2021

Location

FAA Identifier: 0MN3
Lat/Long: 46-40-40.0000N 094-17-33.0000W
46-40.666667N 094-17.550000W
46.6777778,-94.2925000
(estimated)
Elevation: 1230 ft. / 375 m (estimated)
Variation: 03E (1995)
From city: 3 miles NE of JENKINS, MN
Time zone: UTC -5 (UTC -6 during Standard Time)
Zip code: 56474

Seaplane Base Operations

Seaplane Base use: Private use. Permission required prior to landing
Activation date: 02/1999
Control tower: no
ARTCC: MINNEAPOLIS CENTER
FSS: PRINCETON FLIGHT SERVICE STATION
Attendance: MAY-SEP SR-SS
Segmented circle: no

Seaplane Base Communications

WX AWOS-3 at PWC (5 nm NW): 118.525 (218-587-3420)
WX ASOS at BRD (18 nm S): 126.775 (218-828-3314)
WX AWOS-3 at XVG (19 nm N): 118.275 (218-363-3347)

Nearby radio navigation aids

NDB name  Hdg/Dist  Freq  Var  ID
RIPLEY000/36.040403EXCR -..- -.-. .-.

Seaplane Base Services

Fuel available: 100LL

Runway Information

Runway 6W/24W

Dimensions: 5000 x 100 ft. / 1524 x 30 m
Surface: water
RUNWAY 6W  RUNWAY 24W
Traffic pattern: leftleft
Obstructions: 50 ft. trees, 1000 ft. from runway50 ft. trees, 1000 ft. from runway

Runway 15W/33W

Dimensions: 5000 x 100 ft. / 1524 x 30 m
Surface: water
RUNWAY 15W  RUNWAY 33W
Traffic pattern: leftleft
Obstructions: 50 ft. trees, 1000 ft. from runway50 ft. trees, 1000 ft. from runway

Seaplane Base Ownership and Management from official FAA records

Ownership: Privately-owned
Owner: PAUL K. SCHROEDER
36261 SPRUCE TRAIL
PINE RIVER, MN 56474
Phone 218-568-4134
Manager: PAUL K. SCHROEDER
36261 SPRUCE TRAIL
PINE RIVER, MN 56474
Phone 218-568-4134

Seaplane Base Operational Statistics

Aircraft based on the field: 2
Single engine airplanes: 2
    

Additional Remarks

FOR CD CTC MINNEAPOLIS ARTCC AT 651-463-5588.

Instrument Procedures

There are no published instrument procedures at 0MN3.

Some nearby airports with instrument procedures:

KPWC - Pine River Regional Airport (5 nm NW)
KBRD - Brainerd Lakes Regional Airport (18 nm S)
KXVG - Longville Municipal Airport (19 nm N)
KAIT - Aitkin Municipal Airport-Steve Kurtz Field (27 nm E)
KSAZ - Staples Municipal Airport (28 nm SW)
 
Loc | Ops | Rwys | IFR | FBO | Links
Com | Nav | Svcs | Stats | Notes
Area around 0MN3 (Lower Hay Lake Seaplane Base)
 
Road maps at: MapQuest Bing Google
 
Aerial photo
No photo
 
Sectional chart

 
Airport distance calculator
Flying to Lower Hay Lake Seaplane Base? Find the distance to fly.

From to 0MN3

Sunrise and sunset
Times for 16-May-2021
 Local
(UTC-5)
 Zulu
(UTC)
Morning civil twilight05:0710:07
Sunrise05:4310:43
Sunset20:4501:45
Evening civil twilight21:2002:20

Current date and time
Zulu (UTC)  17-May-2021 01:42:02
Local (UTC-5)  16-May-2021 20:42:02
 
METAR
KPWC 
4nm NW 
170115Z AUTO 17007KT 10SM CLR 22/09 A3003 RMK AO2
KBRD 
18nm S 
170053Z AUTO 17010KT 10SM CLR 22/07 A3001 RMK AO2 SLP162 T02170067 $
KXVG 
19nm N 
170113Z AUTO 00000KT 10SM CLR 21/07 A2999 RMK AO2
TAF
KBRD 
18nm S 
161727Z 1618/1718 18008KT P6SM FEW070
NOTAMs
Click for the latest NOTAMs
NOTAMs are issued by the DoD/FAA and will open in a separate window not controlled by AirNav.

 

 
 

Would you like to see your business listed on this page?

 If your business provides an interesting product or service to pilots, flight crews, aircraft, or users of the Lower Hay Lake Seaplane Base, you should consider listing it here.  To start the listing process, click on the button below
 
Add a business
 

Other Pages about Lower Hay Lake Seaplane Base

Update a link
 
Copyright © AirNav, LLC. All rights reserved. Privacy Policy  Contact